createdAt,value
2022-07-28T00:01:13.176Z,2.23
2022-07-28T00:04:02.210Z,2.00
2022-07-28T00:06:58.936Z,1.97
2022-07-28T00:09:48.075Z,2.27
2022-07-28T00:12:47.815Z,1.90
2022-07-28T00:15:37.700Z,2.03
2022-07-28T00:18:25.319Z,2.13
2022-07-28T00:21:12.902Z,2.50
2022-07-28T00:24:00.122Z,2.00
2022-07-28T00:26:47.526Z,2.03
2022-07-28T00:29:49.732Z,2.00
2022-07-28T00:32:39.547Z,2.17
2022-07-28T00:35:30.778Z,2.27
2022-07-28T00:38:18.501Z,2.27
2022-07-28T00:41:14.913Z,1.90
2022-07-28T00:44:02.166Z,2.50
2022-07-28T00:46:50.342Z,2.30
2022-07-28T00:49:39.650Z,2.00
2022-07-28T00:52:27.595Z,2.50
2022-07-28T00:55:14.853Z,1.90
2022-07-28T00:58:03.217Z,1.90
2022-07-28T01:00:53.379Z,2.30
2022-07-28T01:03:43.036Z,2.20
2022-07-28T01:06:56.553Z,2.13
2022-07-28T01:09:54.201Z,2.03
2022-07-28T01:12:52.342Z,2.30
2022-07-28T01:15:46.030Z,2.30
2022-07-28T01:18:45.607Z,2.20
2022-07-28T01:21:37.600Z,2.23
2022-07-28T01:24:29.879Z,2.30
2022-07-28T01:27:31.144Z,2.10
2022-07-28T01:30:36.778Z,1.97
2022-07-28T01:33:36.400Z,2.23
2022-07-28T01:36:28.995Z,2.30
2022-07-28T01:39:17.791Z,2.20
2022-07-28T01:42:08.025Z,2.07
2022-07-28T01:44:57.251Z,2.10
2022-07-28T01:47:47.856Z,2.60
2022-07-28T01:50:36.316Z,2.20
2022-07-28T01:53:25.354Z,2.40
2022-07-28T01:56:14.690Z,2.00
2022-07-28T01:59:09.947Z,2.50
2022-07-28T02:02:00.278Z,2.50
2022-07-28T02:04:50.805Z,2.70
2022-07-28T02:07:39.592Z,2.20
2022-07-28T02:10:28.050Z,2.30
2022-07-28T02:13:15.290Z,2.83
2022-07-28T02:16:06.246Z,2.97
2022-07-28T02:18:55.411Z,2.20
2022-07-28T02:21:44.738Z,2.17
2022-07-28T02:24:34.068Z,2.27
2022-07-28T02:27:25.858Z,2.80
2022-07-28T02:30:19.083Z,2.63
2022-07-28T02:33:12.431Z,2.40
2022-07-28T02:36:04.268Z,2.30
2022-07-28T02:38:57.533Z,2.27
2022-07-28T02:41:45.301Z,2.60
2022-07-28T02:44:38.290Z,2.20
2022-07-28T02:47:29.256Z,2.23
2022-07-28T02:50:19.069Z,2.37
2022-07-28T02:53:15.596Z,2.60
2022-07-28T02:56:06.381Z,2.33
2022-07-28T02:58:54.408Z,2.57
2022-07-28T03:01:44.819Z,2.07
2022-07-28T03:04:50.919Z,2.57
2022-07-28T03:07:46.466Z,2.47
2022-07-28T03:10:38.942Z,2.63
2022-07-28T03:13:27.488Z,2.50
2022-07-28T03:16:15.697Z,2.53
2022-07-28T03:19:02.825Z,2.20
2022-07-28T03:21:53.031Z,2.73
2022-07-28T03:24:43.411Z,2.60
2022-07-28T03:27:33.256Z,2.43
2022-07-28T03:30:27.762Z,2.40
2022-07-28T03:33:15.116Z,2.70
2022-07-28T03:36:07.968Z,2.30
2022-07-28T03:39:00.182Z,2.30
2022-07-28T03:41:48.361Z,2.93
2022-07-28T03:44:36.841Z,2.70
2022-07-28T03:47:25.770Z,2.67
2022-07-28T03:50:14.122Z,2.70
2022-07-28T03:53:02.970Z,2.27
2022-07-28T03:55:51.801Z,2.67
2022-07-28T03:58:38.925Z,2.83
2022-07-28T04:01:26.135Z,2.67
2022-07-28T04:04:14.918Z,2.37
2022-07-28T04:07:02.419Z,3.03
2022-07-28T04:09:49.517Z,2.63
2022-07-28T04:12:47.567Z,2.90
2022-07-28T04:15:37.852Z,2.57
2022-07-28T04:18:25.134Z,2.90
2022-07-28T04:21:13.858Z,2.90
2022-07-28T04:24:02.157Z,2.80
2022-07-28T04:26:52.249Z,2.80
2022-07-28T04:29:40.322Z,2.73
2022-07-28T04:32:27.901Z,2.57
2022-07-28T04:35:17.719Z,2.70
2022-07-28T04:38:06.132Z,2.67
2022-07-28T04:40:53.291Z,2.97
2022-07-28T04:43:40.611Z,3.30
2022-07-28T04:46:27.538Z,3.03
2022-07-28T04:49:14.678Z,2.57
2022-07-28T04:52:01.666Z,3.07
2022-07-28T04:54:50.456Z,2.60
2022-07-28T04:57:37.132Z,3.07
2022-07-28T05:00:24.259Z,2.77
2022-07-28T05:03:11.450Z,3.20
2022-07-28T05:05:58.420Z,2.67
2022-07-28T05:08:45.206Z,2.80
2022-07-28T05:11:34.087Z,3.23
2022-07-28T05:14:20.937Z,3.10
2022-07-28T05:17:07.568Z,3.03
2022-07-28T05:19:57.055Z,3.53
2022-07-28T05:22:46.647Z,3.60
2022-07-28T05:25:33.271Z,3.00
2022-07-28T05:28:22.142Z,3.10
2022-07-28T05:31:09.717Z,3.10
2022-07-28T05:33:56.843Z,3.00
2022-07-28T05:36:43.927Z,3.40
2022-07-28T05:39:33.013Z,3.83
2022-07-28T05:42:20.256Z,3.40
2022-07-28T05:45:16.639Z,3.20
2022-07-28T05:48:04.558Z,3.23
2022-07-28T05:50:52.160Z,2.77
2022-07-28T05:53:39.111Z,3.77
2022-07-28T05:56:26.266Z,3.50
2022-07-28T05:59:14.964Z,3.40
2022-07-28T06:02:04.388Z,3.30
2022-07-28T06:04:51.292Z,3.40
2022-07-28T06:07:43.375Z,3.23
2022-07-28T06:10:52.796Z,2.83
2022-07-28T06:13:40.683Z,3.13
2022-07-28T06:16:28.170Z,3.43
2022-07-28T06:19:17.078Z,3.20
2022-07-28T06:22:06.320Z,3.23
2022-07-28T06:24:53.482Z,3.30
2022-07-28T06:27:40.567Z,3.10
2022-07-28T06:30:28.422Z,3.60
2022-07-28T06:33:17.398Z,3.00
2022-07-28T06:36:05.900Z,3.10
2022-07-28T06:38:53.028Z,3.05
2022-07-28T06:41:41.580Z,2.75
2022-07-28T06:44:48.329Z,2.50
2022-07-28T06:47:35.877Z,3.08
2022-07-28T06:50:26.327Z,2.90
2022-07-28T06:53:15.346Z,2.50
2022-07-28T06:56:02.341Z,2.70
2022-07-28T06:58:49.626Z,3.17
2022-07-28T07:01:36.807Z,2.90
2022-07-28T07:04:23.766Z,2.47
2022-07-28T07:07:14.902Z,2.90
2022-07-28T07:10:06.936Z,2.85
2022-07-28T07:12:54.225Z,2.60
2022-07-28T07:15:41.398Z,2.60
2022-07-28T07:18:28.526Z,2.40
2022-07-28T07:21:18.745Z,2.70
2022-07-28T07:24:05.769Z,2.85
2022-07-28T07:26:54.333Z,2.63
2022-07-28T07:29:41.531Z,2.95
2022-07-28T07:32:28.962Z,2.92
2022-07-28T07:35:16.294Z,2.72
2022-07-28T07:38:03.529Z,2.90
2022-07-28T07:40:51.324Z,2.88
2022-07-28T07:43:42.372Z,2.60
2022-07-28T07:46:32.893Z,3.13
2022-07-28T07:49:20.174Z,2.90
2022-07-28T07:52:09.614Z,2.40
2022-07-28T07:54:56.821Z,2.63
2022-07-28T07:57:46.411Z,2.67
2022-07-28T08:00:35.237Z,2.55
2022-07-28T08:03:22.824Z,2.78
2022-07-28T08:06:13.413Z,2.53
2022-07-28T08:09:02.741Z,2.58
2022-07-28T08:11:50.608Z,2.60
2022-07-28T08:14:37.895Z,2.55
2022-07-28T08:17:29.385Z,2.58
2022-07-28T08:20:16.066Z,2.42
2022-07-28T08:23:04.030Z,2.30
2022-07-28T08:25:50.934Z,2.45
2022-07-28T08:28:38.380Z,2.30
2022-07-28T08:31:25.625Z,2.35
2022-07-28T08:34:31.574Z,2.50
2022-07-28T08:37:20.416Z,2.55
2022-07-28T08:40:14.845Z,2.45
2022-07-28T08:43:11.448Z,2.00
2022-07-28T08:46:01.125Z,2.30
2022-07-28T08:48:50.492Z,2.17
2022-07-28T08:51:40.463Z,2.08
2022-07-28T08:54:30.400Z,2.35
2022-07-28T08:57:21.590Z,2.40
2022-07-28T09:00:10.717Z,2.15
2022-07-28T09:02:58.376Z,2.28
2022-07-28T09:05:46.291Z,1.88
2022-07-28T09:08:34.984Z,2.05
2022-07-28T09:11:22.153Z,2.17
2022-07-28T09:14:09.437Z,2.05
2022-07-28T09:16:59.503Z,2.17
2022-07-28T09:19:46.466Z,1.80
2022-07-28T09:22:34.372Z,2.10
2022-07-28T09:25:22.843Z,2.13
2022-07-28T09:28:11.249Z,1.95
2022-07-28T09:30:59.555Z,2.17
2022-07-28T09:33:58.400Z,1.88
2022-07-28T09:36:45.951Z,1.85
2022-07-28T09:39:38.222Z,1.90
2022-07-28T09:42:27.174Z,2.42
2022-07-28T09:45:24.880Z,2.08
2022-07-28T09:48:14.367Z,1.90
2022-07-28T09:51:13.819Z,2.05
2022-07-28T09:54:12.613Z,1.95
2022-07-28T09:57:01.867Z,2.15
2022-07-28T09:59:52.206Z,2.00
2022-07-28T10:02:50.671Z,2.25
2022-07-28T10:05:41.760Z,2.20
2022-07-28T10:08:43.897Z,1.92
2022-07-28T10:11:32.022Z,2.10
2022-07-28T10:14:21.568Z,2.28
2022-07-28T10:17:23.844Z,2.30
2022-07-28T10:20:11.996Z,2.05
2022-07-28T10:23:03.713Z,2.10
2022-07-28T10:25:52.601Z,2.15
2022-07-28T10:28:49.216Z,2.17
2022-07-28T10:31:42.805Z,2.25
2022-07-28T10:34:36.463Z,2.03
2022-07-28T10:37:27.835Z,1.77
2022-07-28T10:40:17.426Z,2.55
2022-07-28T10:43:04.976Z,2.00
2022-07-28T10:46:12.979Z,2.05
2022-07-28T10:49:03.646Z,2.50
2022-07-28T10:52:08.815Z,2.38
2022-07-28T10:55:10.751Z,2.45
2022-07-28T10:58:11.617Z,2.05
2022-07-28T11:01:05.553Z,2.30
2022-07-28T11:03:53.810Z,1.90
2022-07-28T11:06:42.503Z,2.20
2022-07-28T11:09:31.271Z,2.72
2022-07-28T11:12:48.988Z,2.22
2022-07-28T11:15:38.327Z,2.15
2022-07-28T11:18:25.987Z,2.15
2022-07-28T11:21:16.411Z,2.30
2022-07-28T11:24:04.241Z,2.30
2022-07-28T11:26:54.324Z,2.15
2022-07-28T11:29:48.091Z,2.63
2022-07-28T11:32:57.831Z,2.40
2022-07-28T11:35:56.390Z,2.20
2022-07-28T11:39:21.681Z,2.38
2022-07-28T11:42:28.120Z,2.17
2022-07-28T11:45:38.700Z,2.10
2022-07-28T11:48:27.868Z,2.53
2022-07-28T11:51:16.026Z,2.50
2022-07-28T11:54:04.185Z,2.15
2022-07-28T11:56:59.402Z,2.10
2022-07-28T11:59:56.615Z,2.40
2022-07-28T12:02:44.606Z,2.03
2022-07-28T12:05:34.352Z,2.20
2022-07-28T12:08:30.931Z,2.38
2022-07-28T12:11:17.597Z,2.40
2022-07-28T12:14:06.173Z,2.25
2022-07-28T12:16:54.932Z,2.30
2022-07-28T12:19:42.211Z,2.40
2022-07-28T12:22:29.560Z,2.30
2022-07-28T12:25:16.810Z,2.70
2022-07-28T12:28:25.553Z,2.30
2022-07-28T12:31:16.101Z,2.35
2022-07-28T12:34:06.846Z,2.20
2022-07-28T12:36:57.048Z,2.40
2022-07-28T12:39:46.230Z,2.25
2022-07-28T12:42:33.801Z,2.35
2022-07-28T12:45:20.923Z,2.20
2022-07-28T12:48:09.144Z,2.60
2022-07-28T12:50:57.848Z,2.70
2022-07-28T12:53:52.291Z,2.17
2022-07-28T12:56:47.325Z,2.40
2022-07-28T12:59:36.696Z,2.33
2022-07-28T13:02:37.704Z,2.33
2022-07-28T13:05:33.276Z,2.05
2022-07-28T13:08:22.587Z,2.47
2022-07-28T13:11:28.080Z,2.40
2022-07-28T13:14:18.292Z,2.22
2022-07-28T13:17:05.659Z,2.90
2022-07-28T13:20:05.696Z,2.30
2022-07-28T13:22:53.639Z,2.53
2022-07-28T13:25:42.194Z,2.22
2022-07-28T13:28:29.894Z,2.58
2022-07-28T13:31:17.252Z,2.50
2022-07-28T13:34:05.236Z,2.25
2022-07-28T13:36:52.614Z,2.58
2022-07-28T13:39:39.927Z,2.13
2022-07-28T13:42:30.327Z,2.50
2022-07-28T13:45:17.451Z,2.42
2022-07-28T13:48:08.971Z,2.40
2022-07-28T13:50:56.365Z,2.22
2022-07-28T13:53:43.949Z,2.13
2022-07-28T13:56:31.332Z,2.25
2022-07-28T13:59:20.303Z,2.50
2022-07-28T14:02:15.566Z,2.08
2022-07-28T14:05:04.023Z,2.92
2022-07-28T14:07:51.262Z,2.20
2022-07-28T14:10:38.953Z,2.50
2022-07-28T14:13:31.361Z,2.40
2022-07-28T14:16:20.453Z,2.30
2022-07-28T14:19:07.669Z,3.00
2022-07-28T14:21:57.782Z,2.40
2022-07-28T14:24:44.874Z,2.55
2022-07-28T14:27:32.680Z,2.35
2022-07-28T14:30:20.810Z,2.40
2022-07-28T14:33:09.610Z,2.45
2022-07-28T14:35:56.791Z,2.17
2022-07-28T14:38:52.864Z,2.55
2022-07-28T14:41:40.424Z,2.53
2022-07-28T14:44:27.698Z,2.67
2022-07-28T14:47:15.554Z,2.50
2022-07-28T14:50:05.338Z,2.58
2022-07-28T14:52:52.725Z,2.90
2022-07-28T14:55:40.345Z,2.45
2022-07-28T14:58:31.295Z,2.78
2022-07-28T15:01:18.394Z,2.63
2022-07-28T15:04:06.106Z,2.50
2022-07-28T15:06:55.022Z,2.70
2022-07-28T15:09:50.109Z,2.30
2022-07-28T15:12:38.136Z,2.47
2022-07-28T15:15:27.536Z,2.60
2022-07-28T15:18:15.475Z,2.58
2022-07-28T15:21:03.192Z,2.58
2022-07-28T15:23:54.239Z,2.53
2022-07-28T15:26:42.047Z,2.30
2022-07-28T15:29:35.559Z,2.67
2022-07-28T15:32:28.056Z,2.60
2022-07-28T15:35:18.267Z,2.17
2022-07-28T15:38:05.570Z,2.20
2022-07-28T15:40:53.933Z,2.40
2022-07-28T15:43:40.995Z,2.58
2022-07-28T15:46:28.187Z,2.28
2022-07-28T15:49:16.171Z,2.83
2022-07-28T15:52:02.863Z,2.38
2022-07-28T15:54:50.259Z,2.20
2022-07-28T15:57:39.005Z,2.30
2022-07-28T16:00:29.727Z,2.30
2022-07-28T16:03:17.269Z,2.42
2022-07-28T16:06:04.585Z,2.78
2022-07-28T16:08:52.238Z,2.33
2022-07-28T16:12:02.628Z,2.50
2022-07-28T16:15:22.404Z,2.58
2022-07-28T16:18:30.715Z,2.08
2022-07-28T16:21:42.626Z,3.10
2022-07-28T16:25:16.393Z,2.50
2022-07-28T16:28:39.682Z,2.15
2022-07-28T16:31:45.160Z,2.53
2022-07-28T16:34:49.036Z,2.40
2022-07-28T16:38:05.728Z,2.70
2022-07-28T16:41:45.231Z,2.50
2022-07-28T16:44:43.596Z,2.45
2022-07-28T16:47:58.914Z,2.20
2022-07-28T16:51:09.306Z,2.38
2022-07-28T16:54:37.308Z,2.47
2022-07-28T16:57:29.713Z,2.25
2022-07-28T17:00:28.692Z,2.40
2022-07-28T17:03:21.057Z,3.00
2022-07-28T17:06:40.931Z,2.40
2022-07-28T17:09:43.895Z,2.33
2022-07-28T17:13:10.605Z,2.60
2022-07-28T17:16:37.826Z,2.42
2022-07-28T17:19:58.387Z,2.65
2022-07-28T17:29:57.288Z,2.72
2022-07-28T17:33:35.026Z,2.63
2022-07-28T17:36:49.156Z,2.72
2022-07-28T17:39:53.639Z,2.50
2022-07-28T17:43:00.655Z,2.80
2022-07-28T17:46:29.776Z,2.42
2022-07-28T17:49:56.727Z,2.50
2022-07-28T17:53:44.509Z,2.30
2022-07-28T17:57:25.940Z,2.15
2022-07-28T18:00:42.326Z,2.55
2022-07-28T18:04:20.000Z,2.60
2022-07-28T18:08:15.091Z,3.20
2022-07-28T18:11:26.057Z,2.70
2022-07-28T18:14:34.774Z,2.85
2022-07-28T18:17:34.381Z,2.60
2022-07-28T18:20:31.743Z,2.50
2022-07-28T18:23:19.697Z,3.05
2022-07-28T18:26:07.166Z,2.75
2022-07-28T18:28:54.081Z,2.83
2022-07-28T18:31:46.534Z,3.03
2022-07-28T18:34:34.942Z,2.47
2022-07-28T18:37:22.358Z,3.20
2022-07-28T18:40:11.293Z,3.00
2022-07-28T18:42:58.899Z,3.60
2022-07-28T18:45:45.896Z,2.80
2022-07-28T18:48:34.465Z,3.63
2022-07-28T18:51:21.643Z,2.97
2022-07-28T18:54:12.801Z,2.67
2022-07-28T18:57:00.168Z,3.00
2022-07-28T18:59:51.967Z,3.25
2022-07-28T19:02:39.541Z,2.22
2022-07-28T19:05:36.987Z,2.30
2022-07-28T19:08:25.166Z,2.25
2022-07-28T19:11:16.136Z,2.83
2022-07-28T19:14:05.701Z,2.58
2022-07-28T19:16:54.540Z,2.30
2022-07-28T19:19:41.554Z,2.55
2022-07-28T19:22:30.189Z,2.53
2022-07-28T19:25:17.546Z,2.60
2022-07-28T19:28:07.686Z,2.50
2022-07-28T19:30:58.880Z,2.63
2022-07-28T19:33:46.446Z,2.70
2022-07-28T19:36:33.786Z,2.83
2022-07-28T19:39:24.736Z,2.40
2022-07-28T19:42:12.252Z,2.72
2022-07-28T19:45:00.086Z,2.25
2022-07-28T19:47:49.814Z,2.53
2022-07-28T19:50:38.741Z,2.70
2022-07-28T19:53:31.819Z,2.30
2022-07-28T19:56:21.834Z,2.90
2022-07-28T19:59:16.490Z,2.60
2022-07-28T20:02:03.456Z,2.47
2022-07-28T20:04:50.475Z,2.75
2022-07-28T20:07:37.345Z,2.47
2022-07-28T20:10:25.676Z,2.83
2022-07-28T20:13:13.911Z,3.22
2022-07-28T20:16:01.017Z,2.85
2022-07-28T20:18:48.377Z,3.08
2022-07-28T20:21:39.259Z,2.92
2022-07-28T20:24:27.171Z,2.63
2022-07-28T20:27:14.476Z,2.60
2022-07-28T20:30:02.848Z,3.03
2022-07-28T20:32:51.747Z,3.00
2022-07-28T20:35:39.063Z,3.03
2022-07-28T20:38:26.331Z,3.00
2022-07-28T20:41:13.358Z,3.10
2022-07-28T20:44:27.357Z,2.80
2022-07-28T20:47:09.360Z,2.60
2022-07-28T20:49:56.230Z,2.80
2022-07-28T20:52:43.491Z,2.67
2022-07-28T20:55:31.626Z,2.85
2022-07-28T20:58:18.695Z,2.42
2022-07-28T21:01:06.051Z,3.10
2022-07-28T21:03:54.551Z,2.65
2022-07-28T21:06:50.977Z,3.00
2022-07-28T21:09:39.814Z,2.97
2022-07-28T21:12:26.982Z,3.20
2022-07-28T21:15:14.244Z,2.95
2022-07-28T21:18:01.527Z,2.95
2022-07-28T21:20:49.990Z,2.63
2022-07-28T21:23:37.715Z,2.85
2022-07-28T21:26:24.514Z,2.80
2022-07-28T21:32:05.379Z,2.83
2022-07-28T21:34:52.905Z,3.00
2022-07-28T21:37:41.561Z,2.90
2022-07-28T21:40:28.799Z,2.47
2022-07-28T21:43:15.732Z,3.00
2022-07-28T21:46:03.028Z,3.00
2022-07-28T21:48:50.525Z,3.08
2022-07-28T21:51:37.581Z,2.67
2022-07-28T21:54:26.115Z,3.00
2022-07-28T21:57:16.344Z,3.53
